METAR Data
IDs: Format: Raw Decoded Include TAF

Data at: 0743 UTC 23 Feb 2019

PAKI 230738Z AUTO 15031G38KT 3SM -SN BR OVC004 M01/M01 A2995 RMK AO2 PK WND 15038/0736 SNB02 P0000 FZRANO
PAKI 230707Z AUTO 15030G37KT 4SM -SN BR BKN008 OVC026 M01/M02 A2995 RMK AO2 PK WND 15037/0704 SNB02 CIG 005V012 P0000 FZRANO
PAKI 230656Z AUTO 15029G36KT 7SM BKN010 OVC018 M01/M02 A2995 RMK AO2 PK WND 14036/0650 CIG 007V012 SLP144 T10111017 FZRANO
PAKI 230627Z AUTO 15029KT 9SM BKN012 BKN026 OVC065 M01/M02 A2996 RMK AO2 PK WND 14035/0600 FZRANO
PAKI 230612Z AUTO 14028G32KT 9SM SCT012 BKN045 OVC070 M01/M02 A2996 RMK AO2 PK WND 14035/0600 FZRANO
PAKI 230556Z AUTO 15030KT 8SM BKN010 OVC017 M01/M02 A2996 RMK AO2 PK WND 14034/0546 SNE46 SLP148 P0000 60000 T10111022 10006 21011 58007 FZRANO
PAKI 230531Z AUTO 14029KT 5SM -SN BR OVC010 M01/M02 A2997 RMK AO2 PK WND 15033/0528 CIG 007V011 P0000 FZRANO
PAKI 230456Z AUTO 15028KT 5SM -SN BR OVC006 M01/M01 A2997 RMK AO2 PK WND 15032/0448 UPB12E20B36E53SNB20E36B53 CIG 004V009 SLP151 P0000 T10061011 FZRANO
PAKI 230442Z AUTO 15027KT 4SM UP BR OVC006 00/M01 A2997 RMK AO2 PK WND 15032/0408 UPB12E20B36SNB20E36 CIG 004V010 P0000 FZRANO
PAKI 230428Z AUTO 15026KT 2SM -SN BR BKN008 OVC030 00/M01 A2998 RMK AO2 PK WND 15032/0408 UPB12E20SNB20 P0000 FZRANO
PAKI 230421Z AUTO 15027KT 2 1/2SM -SN BR SCT008 BKN028 OVC033 00/M01 A2997 RMK AO2 PK WND 15032/0408 UPB12E20SNB20 P0000 FZRANO
PAKI 230417Z AUTO 15027KT 4SM UP BR SCT008 SCT025 OVC031 00/M01 A2998 RMK AO2 PK WND 15032/0408 UPB12 P0000 FZRANO
PAKI 230356Z AUTO 15027KT 10SM FEW015 SCT022 OVC028 01/M01 A2998 RMK AO2 PK WND 15032/0336 SLP152 T00061011 FZRANO
PAKI 230256Z AUTO 15025KT 10SM OVC025 01/M01 A2998 RMK AO2 PK WND 16030/0219 SLP155 T00061011 55001 FZRANO
PAKI 230234Z AUTO 15023KT 9SM BKN029 OVC035 01/M01 A2999 RMK AO2 PK WND 16030/0219 FZRANO
PAKI 230156Z AUTO 15026KT 10SM OVC035 01/M01 A2998 RMK AO2 PK WND 15033/0119 SLP154 T00061011 FZRANO
PAKI 230056Z AUTO 15026KT 8SM OVC036 01/M01 A2998 RMK AO2 PK WND 16032/0030 SLP155 T00061011 FZRANO
PAKI 222356Z AUTO 15026KT 9SM OVC036 01/M01 A2999 RMK AO2 PK WND 15029/2355 SLP156 60000 T00061011 10011 20006 58009 FZRANO
PAKI 222256Z AUTO 16022KT 8SM BKN017 OVC025 01/M01 A3001 RMK AO2 PK WND 15028/2208 SLP164 T00061006 FZRANO
PAKI 222239Z AUTO 15024KT 9SM BKN022 BKN026 OVC036 01/M01 A3001 RMK AO2 PK WND 15028/2208 FZRANO
PAKI 222156Z AUTO 15024KT 8SM OVC038 01/M01 A3002 RMK AO2 PK WND 15028/2152 SLP166 T00061006 FZRANO
PAKI 222056Z AUTO 16022KT 8SM SCT085 01/M01 A3001 RMK AO2 PK WND 16027/2026 SLP165 60000 T00061006 50001 FZRANO
PAKI 221956Z AUTO 16023KT 9SM BKN034 OVC080 01/M01 A3002 RMK AO2 PK WND 16028/1909 SLP166 T00061006 FZRANO
PAKI 221856Z AUTO 16023KT 9SM FEW027 BKN034 OVC060 01/M01 A3001 RMK AO2 PK WND 16029/1758 UPB36E41SNE36 SLP163 P0000 T00061006 FZRANO
PAKI 221821Z AUTO 16024KT 3SM -SN BR FEW007 BKN033 OVC050 01/M01 A3001 RMK AO2 PK WND 16029/1758 P0000 FZRANO
PAKI 221809Z AUTO 17024KT 1 1/4SM -SN BR FEW006 SCT022 OVC027 01/M01 A3001 RMK AO2 PK WND 16029/1758 P0000 FZRANO
PAKI 221756Z AUTO 17024KT 2 1/2SM -SN BR FEW008 BKN027 OVC033 01/M01 A3001 RMK AO2 PK WND 16030/1743 RAB1658E23SNE1658B23 SLP163 P0000 60000 T00061006 10006 20000 55002 FZRANO
PAKI 221733Z AUTO 17025KT 2SM -SN BR BKN020 OVC027 01/M01 A3001 RMK AO2 PK WND 17030/1730 RAB1658E23SNE1658B23 P0000 FZRANO
PAKI 221656Z AUTO 16023KT 7SM -SN OVC027 01/M01 A3001 RMK AO2 PK WND 16028/1632 RAE31SNB31 SLP163 P0000 T00061006 FZRANO
PAKI 221610Z AUTO 16022KT 10SM -RA SCT024 OVC060 01/M01 A3001 RMK AO2 P0000 FZRANO
PAKI 221556Z AUTO 16021KT 8SM -RA FEW016 BKN024 OVC038 01/M01 A3002 RMK AO2 UPB02E49RAB49SNE02B36E47 SLP165 P0000 T00061006 FZRANO
PAKI 221538Z AUTO 17018KT 4SM -SN BR FEW012 BKN025 OVC046 00/M01 A3002 RMK AO2 UPB02E36SNE02B36 P0000 FZRANO
PAKI 221529Z AUTO 17019KT 4SM UP BR FEW008 BKN035 OVC046 00/M01 A3002 RMK AO2 UPB02SNE02 P0000 FZRANO
PAKI 221520Z AUTO 17019KT 8SM UP FEW010 BKN046 OVC055 00/M01 A3003 RMK AO2 UPB02SNE02 P0000 FZRANO
PAKI 221511Z AUTO 17019KT 6SM UP BR SCT008 BKN013 OVC050 00/M01 A3003 RMK AO2 UPB02SNE02 P0000 FZRANO
PAKI 221503Z AUTO 17020KT 4SM UP BR SCT010 BKN013 OVC060 00/M01 A3003 RMK AO2 UPB02SNE02 P0000 FZRANO
PAKI 221456Z AUTO 17019KT 4SM -SN BR FEW010 SCT013 OVC038 00/M01 A3003 RMK AO2 PK WND 17026/1358 RAE20SNB20 SLP170 P0000 60000 T00001006 58009 FZRANO
PAKI 221356Z AUTO 17022KT 9SM -RA OVC050 01/M01 A3004 RMK AO2 RAB55 SLP173 P0000 T00061006 FZRANO
PAKI 221256Z AUTO 17020KT 10SM OVC050 00/M01 A3005 RMK AO2 SLP178 T00001006 FZRANO
PAKI 221156Z AUTO 17020KT 10SM OVC050 00/M01 A3005 RMK AO2 SLP179 60000 T00001006 10006 21006 56009 FZRANO
PAKI 221056Z AUTO 17018KT 10SM OVC050 00/M01 A3006 RMK AO2 RAB20E30UPB30E35 SLP183 P0000 T00001011 FZRANO
PAKI 220956Z AUTO 16018KT 10SM OVC050 00/M01 A3006 RMK AO2 SLP183 T00001011 FZRANO
PAKI 220756Z AUTO 16017KT 7SM -SN FEW027 SCT037 OVC047 00/M01 A3009 RMK AO2 SLP190 P0000 T00001006 FZRANO
PAKI 220752Z AUTO 17016KT 6SM -SN BR FEW027 SCT035 OVC049 00/M01 A3008 RMK AO2 P0000 FZRANO
PAKI 220654Z AUTO 17016KT 3SM -SN BR FEW009 BKN022 OVC036 00/M01 A3009 RMK AO2 SLP192 P0000 T00001006 FZRANO
PAKI 220653Z AUTO 17016KT 3SM -SN BR FEW009 BKN022 OVC036 00/M01 A3009 RMK AO2 P0000 FZRANO
PAKI 220642Z AUTO 17016KT 1 3/4SM -SN BR FEW009 SCT016 OVC022 00/M01 A3009 RMK AO2 P0000 FZRANO
PAKI 220617Z AUTO 18018KT 2 1/2SM -SN BR FEW016 BKN022 OVC036 00/M01 A3010 RMK AO2 P0000 FZRANO
PAKI 220612Z AUTO 18020KT 4SM -SN BR SCT024 BKN030 OVC040 00/M01 A3010 RMK AO2 P0000 FZRANO
PAKI 220603Z AUTO 17018KT 2 1/2SM -SN BR BKN022 BKN035 OVC055 00/M01 A3010 RMK AO2 P0000 FZRANO
PAKI 220456Z AUTO 15014KT 10SM SCT026 BKN090 BKN110 M01/M02 A3010 RMK AO2 SNE12 SLP194 P0000 T10111017 FZRANO
PAKI 220407Z AUTO 17016KT 8SM -SN SCT019 BKN044 OVC070 M01/M01 A3011 RMK AO2 P0000 FZRANO
PAKI 220400Z AUTO 17015KT 2SM -SN BR SCT019 BKN046 OVC060 M01/M02 A3011 RMK AO2 P0000 FZRANO
PAKI 220356Z AUTO 17015KT 1 1/4SM -SN BR SCT019 BKN027 OVC060 M01/M02 A3012 RMK AO2 SLP201 P0000 T10061017 FZRANO
PAKI 220351Z AUTO 17015KT 1SM -SN BR BKN019 BKN038 OVC060 M01/M02 A3012 RMK AO2 P0000 FZRANO
PAKI 220345Z AUTO 18017KT 1 3/4SM -SN BR FEW019 BKN042 OVC055 M01/M02 A3012 RMK AO2 P0000 FZRANO
PAKI 220256Z AUTO 17013KT 8SM -SN FEW024 SCT036 OVC047 M01/M02 A3013 RMK AO2 SNB40 SLP204 P0000 60000 T10111022 56004 FZRANO
PAKI 220156Z AUTO 18011KT 10SM FEW033 BKN048 BKN095 M01/M03 A3013 RMK AO2 SLP204 T10111028 FZRANO
PAKI 220056Z AUTO 18010KT 10SM SCT046 M01/M03 A3013 RMK AO2 SLP206 T10111033 FZRANO
PAKI 212356Z AUTO 19011KT 10SM SCT050 M01/M04 A3014 RMK AO2 SLP208 T10111039 11011 21050 51003 FZRANO
PAKI 212256Z AUTO 20011KT 9SM CLR M02/M04 A3014 RMK AO2 SLP208 T10171039 FZRANO
PAKI 212156Z AUTO 20011KT 7SM CLR M02/M04 A3013 RMK AO2 SLP206 T10171039 FZRANO
PAKI 212056Z AUTO 22012KT 9SM FEW045 M03/M05 A3013 RMK AO2 SLP205 T10331050 51020 FZRANO
PAKI 211956Z AUTO 22011KT 7SM CLR M04/M06 A3012 RMK AO2 SLP203 T10391056 FZRANO